sensor_id;sensor_type;location;lat;lon;timestamp;temperature;humidity
34492;DHT22;20737;49.908;8.126;2022-12-20T00:00:55;0.70;99.90
34492;DHT22;20737;49.908;8.126;2022-12-20T00:03:22;0.70;99.90
34492;DHT22;20737;49.908;8.126;2022-12-20T00:05:48;0.70;99.90
34492;DHT22;20737;49.908;8.126;2022-12-20T00:08:15;0.70;99.90
34492;DHT22;20737;49.908;8.126;2022-12-20T00:10:44;0.70;99.90
34492;DHT22;20737;49.908;8.126;2022-12-20T00:13:13;0.70;99.90
34492;DHT22;20737;49.908;8.126;2022-12-20T00:15:39;0.70;99.90
34492;DHT22;20737;49.908;8.126;2022-12-20T00:18:06;0.70;99.90
34492;DHT22;20737;49.908;8.126;2022-12-20T00:20:33;0.70;99.90
34492;DHT22;20737;49.908;8.126;2022-12-20T00:23:00;0.70;99.90
34492;DHT22;20737;49.908;8.126;2022-12-20T00:25:28;0.70;99.90
34492;DHT22;20737;49.908;8.126;2022-12-20T00:27:54;0.70;99.90
34492;DHT22;20737;49.908;8.126;2022-12-20T00:30:22;0.70;99.90
34492;DHT22;20737;49.908;8.126;2022-12-20T00:32:49;0.80;99.90
34492;DHT22;20737;49.908;8.126;2022-12-20T00:35:16;0.80;99.90
34492;DHT22;20737;49.908;8.126;2022-12-20T00:37:43;0.80;99.90
34492;DHT22;20737;49.908;8.126;2022-12-20T00:40:10;0.80;99.90
34492;DHT22;20737;49.908;8.126;2022-12-20T00:42:37;0.80;99.90
34492;DHT22;20737;49.908;8.126;2022-12-20T00:45:04;0.80;99.90
34492;DHT22;20737;49.908;8.126;2022-12-20T00:47:33;0.80;99.90
34492;DHT22;20737;49.908;8.126;2022-12-20T00:50:00;0.80;99.90
34492;DHT22;20737;49.908;8.126;2022-12-20T00:52:26;0.80;99.90
34492;DHT22;20737;49.908;8.126;2022-12-20T00:54:53;0.80;99.90
34492;DHT22;20737;49.908;8.126;2022-12-20T00:57:20;0.80;99.90
34492;DHT22;20737;49.908;8.126;2022-12-20T00:59:46;0.80;99.90
34492;DHT22;20737;49.908;8.126;2022-12-20T01:02:13;0.80;99.90
34492;DHT22;20737;49.908;8.126;2022-12-20T01:04:41;0.80;99.90
34492;DHT22;20737;49.908;8.126;2022-12-20T01:07:08;0.80;99.90
34492;DHT22;20737;49.908;8.126;2022-12-20T01:09:35;0.80;99.90
34492;DHT22;20737;49.908;8.126;2022-12-20T01:12:02;0.80;99.90
34492;DHT22;20737;49.908;8.126;2022-12-20T01:14:29;0.80;99.90
34492;DHT22;20737;49.908;8.126;2022-12-20T01:16:56;0.80;99.90
34492;DHT22;20737;49.908;8.126;2022-12-20T01:19:23;0.90;99.90
34492;DHT22;20737;49.908;8.126;2022-12-20T01:21:51;0.80;99.90
34492;DHT22;20737;49.908;8.126;2022-12-20T01:24:18;0.90;99.90
34492;DHT22;20737;49.908;8.126;2022-12-20T01:26:46;0.90;99.90
34492;DHT22;20737;49.908;8.126;2022-12-20T01:29:13;0.90;99.90
34492;DHT22;20737;49.908;8.126;2022-12-20T01:31:41;0.90;99.90
34492;DHT22;20737;49.908;8.126;2022-12-20T01:34:08;1.00;99.90
34492;DHT22;20737;49.908;8.126;2022-12-20T01:36:35;0.90;99.90
34492;DHT22;20737;49.908;8.126;2022-12-20T01:39:07;0.90;99.90
34492;DHT22;20737;49.908;8.126;2022-12-20T01:41:35;0.90;99.90
34492;DHT22;20737;49.908;8.126;2022-12-20T01:44:04;0.90;99.90
34492;DHT22;20737;49.908;8.126;2022-12-20T01:46:32;0.90;99.90
34492;DHT22;20737;49.908;8.126;2022-12-20T01:49:04;0.90;99.90
34492;DHT22;20737;49.908;8.126;2022-12-20T01:51:34;0.90;99.90
34492;DHT22;20737;49.908;8.126;2022-12-20T01:54:06;0.80;99.90
34492;DHT22;20737;49.908;8.126;2022-12-20T01:56:34;0.80;99.90
34492;DHT22;20737;49.908;8.126;2022-12-20T01:59:01;0.80;99.90
34492;DHT22;20737;49.908;8.126;2022-12-20T02:01:28;0.80;99.90
34492;DHT22;20737;49.908;8.126;2022-12-20T02:03:55;0.80;99.90
34492;DHT22;20737;49.908;8.126;2022-12-20T02:06:24;0.80;99.90
34492;DHT22;20737;49.908;8.126;2022-12-20T02:08:52;0.80;99.90
34492;DHT22;20737;49.908;8.126;2022-12-20T02:11:33;0.80;99.90
34492;DHT22;20737;49.908;8.126;2022-12-20T02:14:10;0.80;99.90
34492;DHT22;20737;49.908;8.126;2022-12-20T02:16:44;0.80;99.90
34492;DHT22;20737;49.908;8.126;2022-12-20T02:19:38;0.90;99.90
34492;DHT22;20737;49.908;8.126;2022-12-20T02:22:16;0.90;99.90
34492;DHT22;20737;49.908;8.126;2022-12-20T02:25:08;0.90;99.90
34492;DHT22;20737;49.908;8.126;2022-12-20T02:27:49;0.90;99.90
34492;DHT22;20737;49.908;8.126;2022-12-20T02:30:22;1.00;99.90
34492;DHT22;20737;49.908;8.126;2022-12-20T02:32:56;1.00;99.90
34492;DHT22;20737;49.908;8.126;2022-12-20T02:35:26;1.00;99.90
34492;DHT22;20737;49.908;8.126;2022-12-20T02:37:54;1.00;99.90
34492;DHT22;20737;49.908;8.126;2022-12-20T02:40:24;0.90;99.90
34492;DHT22;20737;49.908;8.126;2022-12-20T02:42:56;0.90;99.90
34492;DHT22;20737;49.908;8.126;2022-12-20T02:45:28;0.90;99.90
34492;DHT22;20737;49.908;8.126;2022-12-20T02:48:00;1.00;99.90
34492;DHT22;20737;49.908;8.126;2022-12-20T02:50:34;0.90;99.90
34492;DHT22;20737;49.908;8.126;2022-12-20T02:53:02;0.90;99.90
34492;DHT22;20737;49.908;8.126;2022-12-20T02:55:37;1.00;99.90
34492;DHT22;20737;49.908;8.126;2022-12-20T02:58:11;1.00;99.90
34492;DHT22;20737;49.908;8.126;2022-12-20T03:00:42;1.00;99.90
34492;DHT22;20737;49.908;8.126;2022-12-20T03:03:13;0.90;99.90
34492;DHT22;20737;49.908;8.126;2022-12-20T03:05:55;0.90;99.90
34492;DHT22;20737;49.908;8.126;2022-12-20T03:08:22;0.90;99.90
34492;DHT22;20737;49.908;8.126;2022-12-20T03:10:51;0.90;99.90
34492;DHT22;20737;49.908;8.126;2022-12-20T03:13:19;0.90;99.90
34492;DHT22;20737;49.908;8.126;2022-12-20T03:15:47;1.00;99.90
34492;DHT22;20737;49.908;8.126;2022-12-20T03:18:14;0.90;99.90
34492;DHT22;20737;49.908;8.126;2022-12-20T03:20:41;0.90;99.90
34492;DHT22;20737;49.908;8.126;2022-12-20T03:23:08;1.00;99.90
34492;DHT22;20737;49.908;8.126;2022-12-20T03:25:34;1.00;99.90
34492;DHT22;20737;49.908;8.126;2022-12-20T03:28:01;1.00;99.90
34492;DHT22;20737;49.908;8.126;2022-12-20T03:30:28;1.00;99.90
34492;DHT22;20737;49.908;8.126;2022-12-20T03:32:56;1.10;99.90
34492;DHT22;20737;49.908;8.126;2022-12-20T03:35:23;1.10;99.90
34492;DHT22;20737;49.908;8.126;2022-12-20T03:37:49;1.10;99.90
34492;DHT22;20737;49.908;8.126;2022-12-20T03:40:16;1.10;99.90
34492;DHT22;20737;49.908;8.126;2022-12-20T03:42:43;1.10;99.90
34492;DHT22;20737;49.908;8.126;2022-12-20T03:45:10;1.10;99.90
34492;DHT22;20737;49.908;8.126;2022-12-20T03:47:36;1.00;99.90
34492;DHT22;20737;49.908;8.126;2022-12-20T03:50:06;1.00;99.90
34492;DHT22;20737;49.908;8.126;2022-12-20T03:52:33;0.90;99.90
34492;DHT22;20737;49.908;8.126;2022-12-20T03:55:00;0.90;99.90
34492;DHT22;20737;49.908;8.126;2022-12-20T03:57:27;0.90;99.90
34492;DHT22;20737;49.908;8.126;2022-12-20T03:59:54;0.90;99.90
34492;DHT22;20737;49.908;8.126;2022-12-20T04:02:21;1.00;99.90
34492;DHT22;20737;49.908;8.126;2022-12-20T04:04:48;0.90;99.90
34492;DHT22;20737;49.908;8.126;2022-12-20T04:07:16;1.00;99.90
34492;DHT22;20737;49.908;8.126;2022-12-20T04:09:43;1.00;99.90
34492;DHT22;20737;49.908;8.126;2022-12-20T04:12:10;1.00;99.90
34492;DHT22;20737;49.908;8.126;2022-12-20T04:14:37;1.00;99.90
34492;DHT22;20737;49.908;8.126;2022-12-20T04:17:03;1.00;99.90
34492;DHT22;20737;49.908;8.126;2022-12-20T04:19:30;1.10;99.90
34492;DHT22;20737;49.908;8.126;2022-12-20T04:21:57;1.10;99.90
34492;DHT22;20737;49.908;8.126;2022-12-20T04:24:25;1.10;99.90
34492;DHT22;20737;49.908;8.126;2022-12-20T04:26:52;1.10;99.90
34492;DHT22;20737;49.908;8.126;2022-12-20T04:29:18;1.10;99.90
34492;DHT22;20737;49.908;8.126;2022-12-20T04:31:45;1.10;99.90
34492;DHT22;20737;49.908;8.126;2022-12-20T04:34:12;1.20;99.90
34492;DHT22;20737;49.908;8.126;2022-12-20T04:36:39;1.10;99.90
34492;DHT22;20737;49.908;8.126;2022-12-20T04:39:05;1.10;99.90
34492;DHT22;20737;49.908;8.126;2022-12-20T04:41:33;1.20;99.90
34492;DHT22;20737;49.908;8.126;2022-12-20T04:44:00;1.20;99.90
34492;DHT22;20737;49.908;8.126;2022-12-20T04:46:27;1.20;99.90
34492;DHT22;20737;49.908;8.126;2022-12-20T04:48:54;1.20;99.90
34492;DHT22;20737;49.908;8.126;2022-12-20T04:51:21;1.10;99.90
34492;DHT22;20737;49.908;8.126;2022-12-20T04:53:47;1.20;99.90
34492;DHT22;20737;49.908;8.126;2022-12-20T04:56:15;1.10;99.90
34492;DHT22;20737;49.908;8.126;2022-12-20T04:58:44;1.20;99.90
34492;DHT22;20737;49.908;8.126;2022-12-20T05:01:11;1.20;99.90
34492;DHT22;20737;49.908;8.126;2022-12-20T05:03:38;1.20;99.90
34492;DHT22;20737;49.908;8.126;2022-12-20T05:06:06;1.20;99.90
34492;DHT22;20737;49.908;8.126;2022-12-20T05:08:33;1.20;99.90
34492;DHT22;20737;49.908;8.126;2022-12-20T05:11:00;1.20;99.90
34492;DHT22;20737;49.908;8.126;2022-12-20T05:13:27;1.10;99.90
34492;DHT22;20737;49.908;8.126;2022-12-20T05:15:56;1.10;99.90
34492;DHT22;20737;49.908;8.126;2022-12-20T05:18:24;1.10;99.90
34492;DHT22;20737;49.908;8.126;2022-12-20T05:20:55;1.10;99.90
34492;DHT22;20737;49.908;8.126;2022-12-20T05:23:40;1.20;99.90
34492;DHT22;20737;49.908;8.126;2022-12-20T05:26:25;1.20;99.90
34492;DHT22;20737;49.908;8.126;2022-12-20T05:28:52;1.20;99.90
34492;DHT22;20737;49.908;8.126;2022-12-20T05:31:20;1.20;99.90
34492;DHT22;20737;49.908;8.126;2022-12-20T05:33:47;1.20;99.90
34492;DHT22;20737;49.908;8.126;2022-12-20T05:36:13;1.20;99.90
34492;DHT22;20737;49.908;8.126;2022-12-20T05:38:40;1.20;99.90
34492;DHT22;20737;49.908;8.126;2022-12-20T05:41:07;1.20;99.90
34492;DHT22;20737;49.908;8.126;2022-12-20T05:43:34;1.20;99.90
34492;DHT22;20737;49.908;8.126;2022-12-20T05:46:01;1.10;99.90
34492;DHT22;20737;49.908;8.126;2022-12-20T05:48:29;1.20;99.90
34492;DHT22;20737;49.908;8.126;2022-12-20T05:50:55;1.20;99.90
34492;DHT22;20737;49.908;8.126;2022-12-20T05:53:23;1.30;99.90
34492;DHT22;20737;49.908;8.126;2022-12-20T05:55:52;1.20;99.90
34492;DHT22;20737;49.908;8.126;2022-12-20T05:58:19;1.30;99.90
34492;DHT22;20737;49.908;8.126;2022-12-20T06:00:46;1.30;99.90
34492;DHT22;20737;49.908;8.126;2022-12-20T06:03:13;1.30;99.90
34492;DHT22;20737;49.908;8.126;2022-12-20T06:05:42;1.30;99.90
34492;DHT22;20737;49.908;8.126;2022-12-20T06:08:10;1.30;99.90
34492;DHT22;20737;49.908;8.126;2022-12-20T06:10:38;1.20;99.90
34492;DHT22;20737;49.908;8.126;2022-12-20T06:13:05;1.20;99.90
34492;DHT22;20737;49.908;8.126;2022-12-20T06:15:32;1.20;99.90
34492;DHT22;20737;49.908;8.126;2022-12-20T06:17:59;1.20;99.90
34492;DHT22;20737;49.908;8.126;2022-12-20T06:20:27;1.20;99.90
34492;DHT22;20737;49.908;8.126;2022-12-20T06:22:55;1.30;99.90
34492;DHT22;20737;49.908;8.126;2022-12-20T06:25:22;1.30;99.90
34492;DHT22;20737;49.908;8.126;2022-12-20T06:27:48;1.30;99.90
34492;DHT22;20737;49.908;8.126;2022-12-20T06:30:16;1.30;99.90
34492;DHT22;20737;49.908;8.126;2022-12-20T06:32:43;1.40;99.90
34492;DHT22;20737;49.908;8.126;2022-12-20T06:35:10;1.30;99.90
34492;DHT22;20737;49.908;8.126;2022-12-20T06:37:37;1.30;99.90
34492;DHT22;20737;49.908;8.126;2022-12-20T06:40:08;1.30;99.90
34492;DHT22;20737;49.908;8.126;2022-12-20T06:42:34;1.30;99.90
34492;DHT22;20737;49.908;8.126;2022-12-20T06:45:01;1.30;99.90
34492;DHT22;20737;49.908;8.126;2022-12-20T06:47:28;1.40;99.90
34492;DHT22;20737;49.908;8.126;2022-12-20T06:49:55;1.40;99.90
34492;DHT22;20737;49.908;8.126;2022-12-20T06:52:21;1.40;99.90
34492;DHT22;20737;49.908;8.126;2022-12-20T06:54:48;1.40;99.90
34492;DHT22;20737;49.908;8.126;2022-12-20T06:57:16;1.40;99.90
34492;DHT22;20737;49.908;8.126;2022-12-20T06:59:43;1.40;99.90
34492;DHT22;20737;49.908;8.126;2022-12-20T07:02:11;1.40;99.90
34492;DHT22;20737;49.908;8.126;2022-12-20T07:04:37;1.40;99.90
34492;DHT22;20737;49.908;8.126;2022-12-20T07:07:04;1.50;99.90
34492;DHT22;20737;49.908;8.126;2022-12-20T07:09:32;1.50;99.90
34492;DHT22;20737;49.908;8.126;2022-12-20T07:11:58;1.50;99.90
34492;DHT22;20737;49.908;8.126;2022-12-20T07:14:26;1.50;99.90
34492;DHT22;20737;49.908;8.126;2022-12-20T07:16:53;1.50;99.90
34492;DHT22;20737;49.908;8.126;2022-12-20T07:19:20;1.50;99.90
34492;DHT22;20737;49.908;8.126;2022-12-20T07:21:47;1.50;99.90
34492;DHT22;20737;49.908;8.126;2022-12-20T07:24:14;1.50;99.90
34492;DHT22;20737;49.908;8.126;2022-12-20T07:26:42;1.50;99.90
34492;DHT22;20737;49.908;8.126;2022-12-20T07:29:09;1.50;99.90
34492;DHT22;20737;49.908;8.126;2022-12-20T07:31:37;1.50;99.90
34492;DHT22;20737;49.908;8.126;2022-12-20T07:34:04;1.50;99.90
34492;DHT22;20737;49.908;8.126;2022-12-20T07:36:31;1.50;99.90
34492;DHT22;20737;49.908;8.126;2022-12-20T07:38:57;1.50;99.90
34492;DHT22;20737;49.908;8.126;2022-12-20T07:41:24;1.50;99.90
34492;DHT22;20737;49.908;8.126;2022-12-20T07:43:51;1.50;99.90
34492;DHT22;20737;49.908;8.126;2022-12-20T07:46:18;1.50;99.90
34492;DHT22;20737;49.908;8.126;2022-12-20T07:48:47;1.50;99.90
34492;DHT22;20737;49.908;8.126;2022-12-20T07:51:18;1.50;99.90
34492;DHT22;20737;49.908;8.126;2022-12-20T07:53:50;1.50;99.90
34492;DHT22;20737;49.908;8.126;2022-12-20T07:56:18;1.50;99.90
34492;DHT22;20737;49.908;8.126;2022-12-20T07:58:47;1.50;99.90
34492;DHT22;20737;49.908;8.126;2022-12-20T08:01:16;1.60;99.90
34492;DHT22;20737;49.908;8.126;2022-12-20T08:03:48;1.60;99.90
34492;DHT22;20737;49.908;8.126;2022-12-20T08:06:17;1.70;99.90
34492;DHT22;20737;49.908;8.126;2022-12-20T08:08:48;1.80;99.90
34492;DHT22;20737;49.908;8.126;2022-12-20T08:11:17;1.80;99.90
34492;DHT22;20737;49.908;8.126;2022-12-20T08:13:45;1.90;99.90
34492;DHT22;20737;49.908;8.126;2022-12-20T08:16:12;1.90;99.90
34492;DHT22;20737;49.908;8.126;2022-12-20T08:18:38;1.90;99.90
34492;DHT22;20737;49.908;8.126;2022-12-20T08:21:07;1.90;99.90
34492;DHT22;20737;49.908;8.126;2022-12-20T08:23:35;1.90;99.90
34492;DHT22;20737;49.908;8.126;2022-12-20T08:26:02;1.90;99.90
34492;DHT22;20737;49.908;8.126;2022-12-20T08:28:28;1.90;99.90
34492;DHT22;20737;49.908;8.126;2022-12-20T08:31:00;1.90;99.90
34492;DHT22;20737;49.908;8.126;2022-12-20T08:33:27;1.90;99.90
34492;DHT22;20737;49.908;8.126;2022-12-20T08:35:56;1.90;99.90
34492;DHT22;20737;49.908;8.126;2022-12-20T08:38:26;1.90;99.90
34492;DHT22;20737;49.908;8.126;2022-12-20T08:40:53;2.00;99.90
34492;DHT22;20737;49.908;8.126;2022-12-20T08:43:19;2.00;99.90
34492;DHT22;20737;49.908;8.126;2022-12-20T08:45:51;2.00;99.90
34492;DHT22;20737;49.908;8.126;2022-12-20T08:48:18;2.00;99.90
34492;DHT22;20737;49.908;8.126;2022-12-20T08:50:45;2.00;99.90
34492;DHT22;20737;49.908;8.126;2022-12-20T08:53:11;2.00;99.90
34492;DHT22;20737;49.908;8.126;2022-12-20T08:55:39;1.90;99.90
34492;DHT22;20737;49.908;8.126;2022-12-20T08:58:06;2.00;99.90
34492;DHT22;20737;49.908;8.126;2022-12-20T09:00:34;2.00;99.90
34492;DHT22;20737;49.908;8.126;2022-12-20T09:03:01;2.10;99.90
34492;DHT22;20737;49.908;8.126;2022-12-20T09:05:27;2.10;99.90
34492;DHT22;20737;49.908;8.126;2022-12-20T09:07:54;2.20;99.90
34492;DHT22;20737;49.908;8.126;2022-12-20T09:10:21;2.20;99.90
34492;DHT22;20737;49.908;8.126;2022-12-20T09:12:49;2.20;99.90
34492;DHT22;20737;49.908;8.126;2022-12-20T09:15:16;2.20;99.90
34492;DHT22;20737;49.908;8.126;2022-12-20T09:17:42;2.30;99.90
34492;DHT22;20737;49.908;8.126;2022-12-20T09:20:09;2.40;99.90
34492;DHT22;20737;49.908;8.126;2022-12-20T09:22:36;2.30;99.90
34492;DHT22;20737;49.908;8.126;2022-12-20T09:25:05;2.30;99.90
34492;DHT22;20737;49.908;8.126;2022-12-20T09:27:32;2.30;99.90
34492;DHT22;20737;49.908;8.126;2022-12-20T09:30:00;2.30;99.90
34492;DHT22;20737;49.908;8.126;2022-12-20T09:32:27;2.30;99.90
34492;DHT22;20737;49.908;8.126;2022-12-20T09:34:53;2.30;99.90
34492;DHT22;20737;49.908;8.126;2022-12-20T09:37:20;2.40;99.90
34492;DHT22;20737;49.908;8.126;2022-12-20T09:39:48;2.50;99.90
34492;DHT22;20737;49.908;8.126;2022-12-20T09:42:16;2.40;99.90
34492;DHT22;20737;49.908;8.126;2022-12-20T09:44:45;2.40;99.90
34492;DHT22;20737;49.908;8.126;2022-12-20T09:47:16;2.40;99.90
34492;DHT22;20737;49.908;8.126;2022-12-20T09:49:47;2.40;99.90
34492;DHT22;20737;49.908;8.126;2022-12-20T09:52:27;2.50;99.90
34492;DHT22;20737;49.908;8.126;2022-12-20T09:55:05;2.60;99.90
34492;DHT22;20737;49.908;8.126;2022-12-20T09:57:45;2.60;99.90
34492;DHT22;20737;49.908;8.126;2022-12-20T10:00:17;2.70;99.90
34492;DHT22;20737;49.908;8.126;2022-12-20T10:02:46;2.80;99.90
34492;DHT22;20737;49.908;8.126;2022-12-20T10:05:15;2.80;99.90
34492;DHT22;20737;49.908;8.126;2022-12-20T10:07:49;2.70;99.90
34492;DHT22;20737;49.908;8.126;2022-12-20T10:10:35;2.70;99.90
34492;DHT22;20737;49.908;8.126;2022-12-20T10:13:12;2.80;99.90
34492;DHT22;20737;49.908;8.126;2022-12-20T10:15:46;2.80;99.90
34492;DHT22;20737;49.908;8.126;2022-12-20T10:18:30;2.80;99.90
34492;DHT22;20737;49.908;8.126;2022-12-20T10:21:06;2.80;99.90
34492;DHT22;20737;49.908;8.126;2022-12-20T10:23:39;2.80;99.90
34492;DHT22;20737;49.908;8.126;2022-12-20T10:26:10;2.80;99.90
34492;DHT22;20737;49.908;8.126;2022-12-20T10:28:37;2.80;99.90
34492;DHT22;20737;49.908;8.126;2022-12-20T10:31:10;2.80;99.90
34492;DHT22;20737;49.908;8.126;2022-12-20T10:33:39;2.80;99.90
34492;DHT22;20737;49.908;8.126;2022-12-20T10:36:24;2.80;99.90
34492;DHT22;20737;49.908;8.126;2022-12-20T10:38:52;2.80;99.90
34492;DHT22;20737;49.908;8.126;2022-12-20T10:41:21;2.90;99.90
34492;DHT22;20737;49.908;8.126;2022-12-20T10:43:53;3.00;99.90
34492;DHT22;20737;49.908;8.126;2022-12-20T10:46:22;2.90;99.90
34492;DHT22;20737;49.908;8.126;2022-12-20T10:48:50;3.00;99.90
34492;DHT22;20737;49.908;8.126;2022-12-20T10:51:18;3.20;99.90
34492;DHT22;20737;49.908;8.126;2022-12-20T10:53:51;3.30;99.90
34492;DHT22;20737;49.908;8.126;2022-12-20T10:56:20;3.30;99.90
34492;DHT22;20737;49.908;8.126;2022-12-20T10:58:52;3.40;99.90
34492;DHT22;20737;49.908;8.126;2022-12-20T11:01:28;3.50;99.90
34492;DHT22;20737;49.908;8.126;2022-12-20T11:03:59;3.50;99.90
34492;DHT22;20737;49.908;8.126;2022-12-20T11:06:38;3.60;99.90
34492;DHT22;20737;49.908;8.126;2022-12-20T11:09:24;3.70;99.90
34492;DHT22;20737;49.908;8.126;2022-12-20T11:12:00;3.90;99.90
34492;DHT22;20737;49.908;8.126;2022-12-20T11:14:28;4.10;99.90
34492;DHT22;20737;49.908;8.126;2022-12-20T11:16:56;4.20;99.90
34492;DHT22;20737;49.908;8.126;2022-12-20T11:19:42;4.20;99.90
34492;DHT22;20737;49.908;8.126;2022-12-20T11:22:26;3.90;99.90
34492;DHT22;20737;49.908;8.126;2022-12-20T11:25:04;3.90;99.90
34492;DHT22;20737;49.908;8.126;2022-12-20T11:27:39;3.80;99.90
34492;DHT22;20737;49.908;8.126;2022-12-20T11:30:14;3.80;99.90
34492;DHT22;20737;49.908;8.126;2022-12-20T11:33:20;3.80;99.90
34492;DHT22;20737;49.908;8.126;2022-12-20T11:35:58;3.80;99.90
34492;DHT22;20737;49.908;8.126;2022-12-20T11:38:37;3.90;99.90
34492;DHT22;20737;49.908;8.126;2022-12-20T11:41:16;3.80;99.90
34492;DHT22;20737;49.908;8.126;2022-12-20T11:44:06;4.00;99.90
34492;DHT22;20737;49.908;8.126;2022-12-20T11:46:50;4.10;99.90
34492;DHT22;20737;49.908;8.126;2022-12-20T11:52:30;4.50;99.90
34492;DHT22;20737;49.908;8.126;2022-12-20T11:55:06;4.60;99.90
34492;DHT22;20737;49.908;8.126;2022-12-20T11:57:38;4.70;99.90
34492;DHT22;20737;49.908;8.126;2022-12-20T12:00:12;4.50;99.90
34492;DHT22;20737;49.908;8.126;2022-12-20T12:02:43;4.40;99.90
34492;DHT22;20737;49.908;8.126;2022-12-20T12:05:18;4.40;99.90
34492;DHT22;20737;49.908;8.126;2022-12-20T12:07:51;4.30;99.90
34492;DHT22;20737;49.908;8.126;2022-12-20T12:10:22;4.40;99.90
34492;DHT22;20737;49.908;8.126;2022-12-20T12:12:55;4.40;99.90
34492;DHT22;20737;49.908;8.126;2022-12-20T12:15:29;4.40;99.90
34492;DHT22;20737;49.908;8.126;2022-12-20T12:18:00;4.50;99.90
34492;DHT22;20737;49.908;8.126;2022-12-20T12:20:35;4.50;99.90
34492;DHT22;20737;49.908;8.126;2022-12-20T12:23:14;4.40;99.90
34492;DHT22;20737;49.908;8.126;2022-12-20T12:25:41;4.30;99.90
34492;DHT22;20737;49.908;8.126;2022-12-20T12:28:10;4.40;99.90
34492;DHT22;20737;49.908;8.126;2022-12-20T12:30:41;4.50;99.90
34492;DHT22;20737;49.908;8.126;2022-12-20T12:33:13;4.50;99.90
34492;DHT22;20737;49.908;8.126;2022-12-20T12:36:00;4.60;99.90
34492;DHT22;20737;49.908;8.126;2022-12-20T12:39:05;4.60;99.90
34492;DHT22;20737;49.908;8.126;2022-12-20T12:42:01;4.80;99.90
34492;DHT22;20737;49.908;8.126;2022-12-20T12:44:39;5.00;99.90
34492;DHT22;20737;49.908;8.126;2022-12-20T12:47:14;5.30;99.90
34492;DHT22;20737;49.908;8.126;2022-12-20T12:49:47;5.90;99.90
34492;DHT22;20737;49.908;8.126;2022-12-20T12:52:36;6.40;99.90
34492;DHT22;20737;49.908;8.126;2022-12-20T12:55:34;6.80;99.90
34492;DHT22;20737;49.908;8.126;2022-12-20T13:00:55;7.60;99.90
34492;DHT22;20737;49.908;8.126;2022-12-20T13:03:42;8.10;99.90
34492;DHT22;20737;49.908;8.126;2022-12-20T13:06:41;8.10;99.90
34492;DHT22;20737;49.908;8.126;2022-12-20T13:09:18;7.80;99.90
34492;DHT22;20737;49.908;8.126;2022-12-20T13:11:48;7.30;99.90
34492;DHT22;20737;49.908;8.126;2022-12-20T13:14:46;6.80;99.90
34492;DHT22;20737;49.908;8.126;2022-12-20T13:17:45;6.40;99.90
34492;DHT22;20737;49.908;8.126;2022-12-20T13:20:21;6.20;99.90
34492;DHT22;20737;49.908;8.126;2022-12-20T13:23:16;6.00;99.90
34492;DHT22;20737;49.908;8.126;2022-12-20T13:25:45;5.90;99.90
34492;DHT22;20737;49.908;8.126;2022-12-20T13:28:48;5.90;99.90
34492;DHT22;20737;49.908;8.126;2022-12-20T13:31:31;5.80;99.90
34492;DHT22;20737;49.908;8.126;2022-12-20T13:34:01;5.80;99.90
34492;DHT22;20737;49.908;8.126;2022-12-20T13:36:36;6.00;99.90
34492;DHT22;20737;49.908;8.126;2022-12-20T13:39:32;6.20;99.90
34492;DHT22;20737;49.908;8.126;2022-12-20T13:42:14;6.50;99.90
34492;DHT22;20737;49.908;8.126;2022-12-20T13:44:45;6.80;99.90
34492;DHT22;20737;49.908;8.126;2022-12-20T13:47:41;6.90;99.90
34492;DHT22;20737;49.908;8.126;2022-12-20T13:50:32;6.80;99.90
34492;DHT22;20737;49.908;8.126;2022-12-20T13:53:00;6.70;99.90
34492;DHT22;20737;49.908;8.126;2022-12-20T13:55:33;6.70;99.90
34492;DHT22;20737;49.908;8.126;2022-12-20T13:58:10;6.50;99.90
34492;DHT22;20737;49.908;8.126;2022-12-20T14:00:39;6.30;99.90
34492;DHT22;20737;49.908;8.126;2022-12-20T14:03:15;6.20;99.90
34492;DHT22;20737;49.908;8.126;2022-12-20T14:05:44;6.00;99.90
34492;DHT22;20737;49.908;8.126;2022-12-20T14:08:14;5.80;99.90
34492;DHT22;20737;49.908;8.126;2022-12-20T14:10:41;5.60;99.90
34492;DHT22;20737;49.908;8.126;2022-12-20T14:13:18;5.60;99.90
34492;DHT22;20737;49.908;8.126;2022-12-20T14:15:47;5.50;99.90
34492;DHT22;20737;49.908;8.126;2022-12-20T14:18:16;5.40;99.90
34492;DHT22;20737;49.908;8.126;2022-12-20T14:20:46;5.40;99.90
34492;DHT22;20737;49.908;8.126;2022-12-20T14:23:16;5.40;99.90
34492;DHT22;20737;49.908;8.126;2022-12-20T14:25:47;5.40;99.90
34492;DHT22;20737;49.908;8.126;2022-12-20T14:28:20;5.40;99.90
34492;DHT22;20737;49.908;8.126;2022-12-20T14:30:50;5.40;99.90
34492;DHT22;20737;49.908;8.126;2022-12-20T14:33:19;5.50;99.90
34492;DHT22;20737;49.908;8.126;2022-12-20T14:35:48;5.50;99.90
34492;DHT22;20737;49.908;8.126;2022-12-20T14:38:20;5.40;99.90
34492;DHT22;20737;49.908;8.126;2022-12-20T14:40:47;5.40;99.90
34492;DHT22;20737;49.908;8.126;2022-12-20T14:43:15;5.40;99.90
34492;DHT22;20737;49.908;8.126;2022-12-20T14:45:42;5.40;99.90
34492;DHT22;20737;49.908;8.126;2022-12-20T14:48:15;5.40;99.90
34492;DHT22;20737;49.908;8.126;2022-12-20T14:50:51;5.40;99.90
34492;DHT22;20737;49.908;8.126;2022-12-20T14:53:21;5.30;99.90
34492;DHT22;20737;49.908;8.126;2022-12-20T14:55:49;5.30;99.90
34492;DHT22;20737;49.908;8.126;2022-12-20T14:58:23;5.20;99.90
34492;DHT22;20737;49.908;8.126;2022-12-20T15:00:55;5.10;99.90
34492;DHT22;20737;49.908;8.126;2022-12-20T15:03:24;5.10;99.90
34492;DHT22;20737;49.908;8.126;2022-12-20T15:05:52;5.00;99.90
34492;DHT22;20737;49.908;8.126;2022-12-20T15:08:22;5.00;99.90
34492;DHT22;20737;49.908;8.126;2022-12-20T15:10:58;4.90;99.90
34492;DHT22;20737;49.908;8.126;2022-12-20T15:13:29;4.80;99.90
34492;DHT22;20737;49.908;8.126;2022-12-20T15:15:58;4.80;99.90
34492;DHT22;20737;49.908;8.126;2022-12-20T15:18:26;4.70;99.90
34492;DHT22;20737;49.908;8.126;2022-12-20T15:21:01;4.60;99.90
34492;DHT22;20737;49.908;8.126;2022-12-20T15:23:29;4.60;99.90
34492;DHT22;20737;49.908;8.126;2022-12-20T15:25:56;4.50;99.90
34492;DHT22;20737;49.908;8.126;2022-12-20T15:28:24;4.50;99.90
34492;DHT22;20737;49.908;8.126;2022-12-20T15:30:52;4.40;99.90
34492;DHT22;20737;49.908;8.126;2022-12-20T15:33:21;4.40;99.90
34492;DHT22;20737;49.908;8.126;2022-12-20T15:35:50;4.40;99.90
34492;DHT22;20737;49.908;8.126;2022-12-20T15:38:18;4.30;99.90
34492;DHT22;20737;49.908;8.126;2022-12-20T15:40:47;4.30;99.90
34492;DHT22;20737;49.908;8.126;2022-12-20T15:43:16;4.30;99.90
34492;DHT22;20737;49.908;8.126;2022-12-20T15:45:44;4.20;99.90
34492;DHT22;20737;49.908;8.126;2022-12-20T15:48:16;4.20;99.90
34492;DHT22;20737;49.908;8.126;2022-12-20T15:50:50;4.20;99.90
34492;DHT22;20737;49.908;8.126;2022-12-20T15:53:21;4.20;99.90
34492;DHT22;20737;49.908;8.126;2022-12-20T15:55:52;4.20;99.90
34492;DHT22;20737;49.908;8.126;2022-12-20T15:58:19;4.10;99.90
34492;DHT22;20737;49.908;8.126;2022-12-20T16:00:46;4.10;99.90
34492;DHT22;20737;49.908;8.126;2022-12-20T16:03:15;4.10;99.90
34492;DHT22;20737;49.908;8.126;2022-12-20T16:05:42;4.00;99.90
34492;DHT22;20737;49.908;8.126;2022-12-20T16:08:10;4.00;99.90
34492;DHT22;20737;49.908;8.126;2022-12-20T16:10:37;4.10;99.90
34492;DHT22;20737;49.908;8.126;2022-12-20T16:13:04;4.00;99.90